sensor_id;sensor_type;location;lat;lon;timestamp;pressure;altitude;pressure_sealevel;temperature;humidity
68226;BME280;55045;49.410;11.030;2023-02-11T00:00:19;100062.44;;;-4.05;100.00
68226;BME280;55045;49.410;11.030;2023-02-11T00:03:23;100064.28;;;-4.01;100.00
68226;BME280;55045;49.410;11.030;2023-02-11T00:06:29;100062.66;;;-3.78;100.00
68226;BME280;55045;49.410;11.030;2023-02-11T00:09:32;100053.63;;;-4.34;100.00
68226;BME280;55045;49.410;11.030;2023-02-11T00:12:36;100054.63;;;-4.30;100.00
68226;BME280;55045;49.410;11.030;2023-02-11T00:15:39;100049.91;;;-4.42;100.00
68226;BME280;55045;49.410;11.030;2023-02-11T00:18:43;100041.09;;;-4.50;100.00
68226;BME280;55045;49.410;11.030;2023-02-11T00:21:48;100044.31;;;-3.93;100.00
68226;BME280;55045;49.410;11.030;2023-02-11T00:24:52;100020.63;;;-4.36;100.00
68226;BME280;55045;49.410;11.030;2023-02-11T00:27:56;100024.22;;;-4.30;100.00
68226;BME280;55045;49.410;11.030;2023-02-11T00:31:00;100037.72;;;-4.70;100.00
68226;BME280;55045;49.410;11.030;2023-02-11T00:34:03;100031.53;;;-4.38;100.00
68226;BME280;55045;49.410;11.030;2023-02-11T00:37:08;100022.56;;;-3.67;100.00
68226;BME280;55045;49.410;11.030;2023-02-11T00:40:16;100020.91;;;-3.88;100.00
68226;BME280;55045;49.410;11.030;2023-02-11T00:43:19;100015.94;;;-4.47;100.00
68226;BME280;55045;49.410;11.030;2023-02-11T00:46:24;100015.50;;;-4.58;100.00
68226;BME280;55045;49.410;11.030;2023-02-11T00:49:27;100011.44;;;-4.33;100.00
68226;BME280;55045;49.410;11.030;2023-02-11T00:52:32;100012.69;;;-4.64;100.00
68226;BME280;55045;49.410;11.030;2023-02-11T00:55:37;100013.84;;;-4.37;100.00
68226;BME280;55045;49.410;11.030;2023-02-11T00:58:40;100021.00;;;-3.85;100.00
68226;BME280;55045;49.410;11.030;2023-02-11T01:01:44;100009.63;;;-4.76;100.00
68226;BME280;55045;49.410;11.030;2023-02-11T01:04:47;100018.22;;;-4.12;100.00
68226;BME280;55045;49.410;11.030;2023-02-11T01:07:52;100011.28;;;-4.17;100.00
68226;BME280;55045;49.410;11.030;2023-02-11T01:10:57;100017.19;;;-4.38;100.00
68226;BME280;55045;49.410;11.030;2023-02-11T01:14:01;100011.69;;;-4.68;100.00
68226;BME280;55045;49.410;11.030;2023-02-11T01:17:05;100002.41;;;-4.48;100.00
68226;BME280;55045;49.410;11.030;2023-02-11T01:20:14;99999.47;;;-3.51;100.00
68226;BME280;55045;49.410;11.030;2023-02-11T01:23:19;99994.16;;;-4.63;100.00
68226;BME280;55045;49.410;11.030;2023-02-11T01:26:23;99986.66;;;-4.20;100.00
68226;BME280;55045;49.410;11.030;2023-02-11T01:29:26;99985.91;;;-4.59;100.00
68226;BME280;55045;49.410;11.030;2023-02-11T01:32:30;99986.63;;;-4.61;100.00
68226;BME280;55045;49.410;11.030;2023-02-11T01:35:33;99982.78;;;-4.73;100.00
68226;BME280;55045;49.410;11.030;2023-02-11T01:38:39;99977.59;;;-4.36;100.00
68226;BME280;55045;49.410;11.030;2023-02-11T01:41:42;99986.31;;;-4.08;100.00
68226;BME280;55045;49.410;11.030;2023-02-11T01:44:48;99946.47;;;-4.73;100.00
68226;BME280;55045;49.410;11.030;2023-02-11T01:47:52;99978.97;;;-4.63;100.00
68226;BME280;55045;49.410;11.030;2023-02-11T01:50:59;99979.25;;;-4.15;100.00
68226;BME280;55045;49.410;11.030;2023-02-11T01:54:05;99980.72;;;-3.56;100.00
68226;BME280;55045;49.410;11.030;2023-02-11T01:57:29;99973.09;;;-3.99;100.00
68226;BME280;55045;49.410;11.030;2023-02-11T02:00:35;99957.78;;;-4.02;100.00
68226;BME280;55045;49.410;11.030;2023-02-11T02:03:42;99962.31;;;-4.16;100.00
68226;BME280;55045;49.410;11.030;2023-02-11T02:06:49;99968.84;;;-4.42;100.00
68226;BME280;55045;49.410;11.030;2023-02-11T02:09:58;99958.69;;;-4.00;100.00
68226;BME280;55045;49.410;11.030;2023-02-11T02:13:03;99945.31;;;-3.75;100.00
68226;BME280;55045;49.410;11.030;2023-02-11T02:16:10;99949.03;;;-4.31;100.00
68226;BME280;55045;49.410;11.030;2023-02-11T02:19:37;99943.31;;;-4.27;100.00
68226;BME280;55045;49.410;11.030;2023-02-11T02:23:12;99944.38;;;-4.21;100.00
68226;BME280;55045;49.410;11.030;2023-02-11T02:26:41;99942.06;;;-4.16;100.00
68226;BME280;55045;49.410;11.030;2023-02-11T02:30:19;99934.44;;;-4.16;100.00
68226;BME280;55045;49.410;11.030;2023-02-11T02:33:37;99915.97;;;-4.14;100.00
68226;BME280;55045;49.410;11.030;2023-02-11T02:36:54;99898.53;;;-4.06;100.00
68226;BME280;55045;49.410;11.030;2023-02-11T02:40:06;99912.97;;;-4.03;100.00
68226;BME280;55045;49.410;11.030;2023-02-11T02:43:13;99913.47;;;-4.12;100.00
68226;BME280;55045;49.410;11.030;2023-02-11T02:46:19;99907.53;;;-4.13;100.00
68226;BME280;55045;49.410;11.030;2023-02-11T02:49:24;99898.06;;;-3.96;100.00
68226;BME280;55045;49.410;11.030;2023-02-11T02:52:34;99902.47;;;-4.13;100.00
68226;BME280;55045;49.410;11.030;2023-02-11T02:55:49;99916.34;;;-4.25;100.00
68226;BME280;55045;49.410;11.030;2023-02-11T02:59:04;99921.09;;;-4.33;100.00
68226;BME280;55045;49.410;11.030;2023-02-11T03:02:16;99914.16;;;-4.39;100.00
68226;BME280;55045;49.410;11.030;2023-02-11T03:05:22;99923.53;;;-4.36;100.00
68226;BME280;55045;49.410;11.030;2023-02-11T03:08:32;99920.97;;;-4.15;100.00
68226;BME280;55045;49.410;11.030;2023-02-11T03:11:36;99923.75;;;-4.30;100.00
68226;BME280;55045;49.410;11.030;2023-02-11T03:14:40;99924.06;;;-4.22;100.00
68226;BME280;55045;49.410;11.030;2023-02-11T03:17:46;99919.72;;;-4.04;100.00
68226;BME280;55045;49.410;11.030;2023-02-11T03:20:53;99914.22;;;-4.15;100.00
68226;BME280;55045;49.410;11.030;2023-02-11T03:23:59;99906.47;;;-3.97;100.00
68226;BME280;55045;49.410;11.030;2023-02-11T03:27:09;99920.84;;;-3.51;100.00
68226;BME280;55045;49.410;11.030;2023-02-11T03:30:17;99916.88;;;-3.21;100.00
68226;BME280;55045;49.410;11.030;2023-02-11T03:33:26;99921.38;;;-3.60;100.00
68226;BME280;55045;49.410;11.030;2023-02-11T03:36:37;99913.63;;;-3.40;100.00
68226;BME280;55045;49.410;11.030;2023-02-11T03:39:45;99916.03;;;-3.45;100.00
68226;BME280;55045;49.410;11.030;2023-02-11T03:42:51;99922.75;;;-3.68;100.00
68226;BME280;55045;49.410;11.030;2023-02-11T03:45:56;99907.41;;;-3.49;100.00
68226;BME280;55045;49.410;11.030;2023-02-11T03:49:03;99905.47;;;-3.56;100.00
68226;BME280;55045;49.410;11.030;2023-02-11T03:52:10;99902.53;;;-3.44;100.00
68226;BME280;55045;49.410;11.030;2023-02-11T03:55:16;99895.81;;;-3.42;100.00
68226;BME280;55045;49.410;11.030;2023-02-11T03:58:20;99880.31;;;-3.50;100.00
68226;BME280;55045;49.410;11.030;2023-02-11T04:01:23;99890.31;;;-3.54;100.00
68226;BME280;55045;49.410;11.030;2023-02-11T04:04:26;99886.00;;;-3.33;100.00
68226;BME280;55045;49.410;11.030;2023-02-11T04:07:31;99900.38;;;-3.33;100.00
68226;BME280;55045;49.410;11.030;2023-02-11T04:10:35;99904.03;;;-3.25;100.00
68226;BME280;55045;49.410;11.030;2023-02-11T04:13:38;99879.88;;;-3.38;100.00
68226;BME280;55045;49.410;11.030;2023-02-11T04:16:41;99875.09;;;-3.30;100.00
68226;BME280;55045;49.410;11.030;2023-02-11T04:19:44;99874.91;;;-3.36;100.00
68226;BME280;55045;49.410;11.030;2023-02-11T04:22:49;99880.69;;;-2.39;100.00
68226;BME280;55045;49.410;11.030;2023-02-11T04:25:52;99883.88;;;-3.21;100.00
68226;BME280;55045;49.410;11.030;2023-02-11T04:28:55;99874.31;;;-3.04;100.00
68226;BME280;55045;49.410;11.030;2023-02-11T04:34:21;99855.84;;;-3.00;100.00
68226;BME280;55045;49.410;11.030;2023-02-11T04:37:25;99858.09;;;-2.83;100.00
68226;BME280;55045;49.410;11.030;2023-02-11T04:40:28;99830.41;;;-2.76;100.00
68226;BME280;55045;49.410;11.030;2023-02-11T04:43:32;99826.38;;;-2.96;100.00
68226;BME280;55045;49.410;11.030;2023-02-11T04:46:35;99839.78;;;-2.73;100.00
68226;BME280;55045;49.410;11.030;2023-02-11T04:49:40;99842.59;;;-2.91;100.00
68226;BME280;55045;49.410;11.030;2023-02-11T04:52:43;99831.94;;;-2.54;100.00
68226;BME280;55045;49.410;11.030;2023-02-11T04:55:47;99816.91;;;-2.46;100.00
68226;BME280;55045;49.410;11.030;2023-02-11T04:58:52;99823.38;;;-2.29;100.00
68226;BME280;55045;49.410;11.030;2023-02-11T05:01:55;99824.31;;;-2.25;100.00
68226;BME280;55045;49.410;11.030;2023-02-11T05:04:59;99820.66;;;-2.35;100.00
68226;BME280;55045;49.410;11.030;2023-02-11T05:08:03;99823.75;;;-2.17;100.00
68226;BME280;55045;49.410;11.030;2023-02-11T05:11:07;99839.13;;;-2.14;100.00
68226;BME280;55045;49.410;11.030;2023-02-11T05:14:10;99848.13;;;-2.23;100.00
68226;BME280;55045;49.410;11.030;2023-02-11T05:17:13;99837.94;;;-1.95;100.00
68226;BME280;55045;49.410;11.030;2023-02-11T05:20:19;99844.09;;;-2.17;100.00
68226;BME280;55045;49.410;11.030;2023-02-11T05:23:22;99863.06;;;-2.06;100.00
68226;BME280;55045;49.410;11.030;2023-02-11T05:26:25;99860.44;;;-2.09;100.00
68226;BME280;55045;49.410;11.030;2023-02-11T05:29:29;99839.56;;;-1.68;100.00
68226;BME280;55045;49.410;11.030;2023-02-11T05:32:32;99822.84;;;-1.60;100.00
68226;BME280;55045;49.410;11.030;2023-02-11T05:35:37;99807.28;;;-1.39;100.00
68226;BME280;55045;49.410;11.030;2023-02-11T05:38:40;99814.84;;;-1.42;100.00
68226;BME280;55045;49.410;11.030;2023-02-11T05:41:44;99829.31;;;-2.01;100.00
68226;BME280;55045;49.410;11.030;2023-02-11T05:44:47;99820.97;;;-1.96;100.00
68226;BME280;55045;49.410;11.030;2023-02-11T05:47:51;99820.78;;;-2.04;100.00
68226;BME280;55045;49.410;11.030;2023-02-11T05:50:56;99805.34;;;-1.80;100.00
68226;BME280;55045;49.410;11.030;2023-02-11T05:53:59;99792.56;;;-1.51;100.00
68226;BME280;55045;49.410;11.030;2023-02-11T05:57:03;99809.59;;;-1.49;100.00
68226;BME280;55045;49.410;11.030;2023-02-11T06:00:07;99803.84;;;-1.41;100.00
68226;BME280;55045;49.410;11.030;2023-02-11T06:03:14;99790.97;;;-1.46;100.00
68226;BME280;55045;49.410;11.030;2023-02-11T06:06:18;99824.34;;;-1.35;100.00
68226;BME280;55045;49.410;11.030;2023-02-11T06:09:22;99829.56;;;-1.31;100.00
68226;BME280;55045;49.410;11.030;2023-02-11T06:12:25;99833.38;;;-1.15;100.00
68226;BME280;55045;49.410;11.030;2023-02-11T06:15:29;99834.50;;;-1.37;100.00
68226;BME280;55045;49.410;11.030;2023-02-11T06:18:33;99823.19;;;-1.47;100.00
68226;BME280;55045;49.410;11.030;2023-02-11T06:21:38;99814.34;;;-1.29;100.00
68226;BME280;55045;49.410;11.030;2023-02-11T06:24:45;99795.28;;;-1.12;100.00
68226;BME280;55045;49.410;11.030;2023-02-11T06:28:02;99787.41;;;-0.87;100.00
68226;BME280;55045;49.410;11.030;2023-02-11T06:31:06;99800.06;;;-1.23;100.00
68226;BME280;55045;49.410;11.030;2023-02-11T06:34:10;99807.66;;;-1.57;100.00
68226;BME280;55045;49.410;11.030;2023-02-11T06:37:15;99802.00;;;-1.77;100.00
68226;BME280;55045;49.410;11.030;2023-02-11T06:40:18;99808.97;;;-1.71;100.00
68226;BME280;55045;49.410;11.030;2023-02-11T06:43:21;99807.06;;;-1.79;100.00
68226;BME280;55045;49.410;11.030;2023-02-11T06:46:24;99815.59;;;-1.45;100.00
68226;BME280;55045;49.410;11.030;2023-02-11T06:49:28;99813.34;;;-1.66;100.00
68226;BME280;55045;49.410;11.030;2023-02-11T06:52:33;99805.63;;;-1.69;100.00
68226;BME280;55045;49.410;11.030;2023-02-11T06:55:36;99806.84;;;-1.55;100.00
68226;BME280;55045;49.410;11.030;2023-02-11T06:58:39;99791.75;;;-1.80;100.00
68226;BME280;55045;49.410;11.030;2023-02-11T07:01:43;99816.44;;;-1.13;100.00
68226;BME280;55045;49.410;11.030;2023-02-11T07:04:46;99810.78;;;-1.34;100.00
68226;BME280;55045;49.410;11.030;2023-02-11T07:07:50;99830.13;;;-1.09;100.00
68226;BME280;55045;49.410;11.030;2023-02-11T07:10:54;99824.69;;;-0.90;100.00
68226;BME280;55045;49.410;11.030;2023-02-11T07:14:00;99840.41;;;-1.05;100.00
68226;BME280;55045;49.410;11.030;2023-02-11T07:17:03;99824.09;;;-1.45;100.00
68226;BME280;55045;49.410;11.030;2023-02-11T07:20:07;99842.22;;;-1.64;100.00
68226;BME280;55045;49.410;11.030;2023-02-11T07:23:14;99848.06;;;-1.68;100.00
68226;BME280;55045;49.410;11.030;2023-02-11T07:26:20;99842.16;;;-1.67;100.00
68226;BME280;55045;49.410;11.030;2023-02-11T07:29:24;99840.75;;;-1.56;100.00
68226;BME280;55045;49.410;11.030;2023-02-11T07:32:28;99827.66;;;-1.39;100.00
68226;BME280;55045;49.410;11.030;2023-02-11T07:35:31;99829.56;;;-1.31;100.00
68226;BME280;55045;49.410;11.030;2023-02-11T07:38:36;99839.34;;;-0.81;100.00
68226;BME280;55045;49.410;11.030;2023-02-11T07:41:40;99820.28;;;-0.96;100.00
68226;BME280;55045;49.410;11.030;2023-02-11T07:44:45;99814.69;;;-0.07;100.00
68226;BME280;55045;49.410;11.030;2023-02-11T07:47:51;99822.16;;;-0.16;100.00
68226;BME280;55045;49.410;11.030;2023-02-11T07:50:54;99833.38;;;-0.08;100.00
68226;BME280;55045;49.410;11.030;2023-02-11T07:53:59;99835.56;;;0.14;100.00
68226;BME280;55045;49.410;11.030;2023-02-11T07:57:03;99845.66;;;0.10;100.00
68226;BME280;55045;49.410;11.030;2023-02-11T08:00:07;99840.78;;;0.20;100.00
68226;BME280;55045;49.410;11.030;2023-02-11T08:03:13;99829.75;;;0.64;100.00
68226;BME280;55045;49.410;11.030;2023-02-11T08:06:18;99828.31;;;0.79;100.00
68226;BME280;55045;49.410;11.030;2023-02-11T08:09:23;99839.78;;;1.01;100.00
68226;BME280;55045;49.410;11.030;2023-02-11T08:12:26;99845.03;;;1.10;100.00
68226;BME280;55045;49.410;11.030;2023-02-11T08:15:29;99841.09;;;1.29;100.00
68226;BME280;55045;49.410;11.030;2023-02-11T08:18:34;99846.94;;;1.22;100.00
68226;BME280;55045;49.410;11.030;2023-02-11T08:21:38;99842.31;;;1.01;100.00
68226;BME280;55045;49.410;11.030;2023-02-11T08:24:43;99836.00;;;1.31;100.00
68226;BME280;55045;49.410;11.030;2023-02-11T08:27:46;99833.97;;;1.10;100.00
68226;BME280;55045;49.410;11.030;2023-02-11T08:30:49;99829.66;;;1.06;100.00
68226;BME280;55045;49.410;11.030;2023-02-11T08:33:53;99824.69;;;1.15;100.00
68226;BME280;55045;49.410;11.030;2023-02-11T08:36:59;99829.06;;;1.22;100.00
68226;BME280;55045;49.410;11.030;2023-02-11T08:40:04;99834.25;;;1.27;100.00
68226;BME280;55045;49.410;11.030;2023-02-11T08:43:08;99830.91;;;1.31;100.00
68226;BME280;55045;49.410;11.030;2023-02-11T08:46:13;99826.88;;;1.45;100.00
68226;BME280;55045;49.410;11.030;2023-02-11T08:49:17;99815.00;;;1.50;100.00
68226;BME280;55045;49.410;11.030;2023-02-11T08:52:22;99824.25;;;1.40;100.00
68226;BME280;55045;49.410;11.030;2023-02-11T08:55:27;99822.53;;;1.39;100.00
68226;BME280;55045;49.410;11.030;2023-02-11T08:58:30;99830.38;;;1.52;100.00
68226;BME280;55045;49.410;11.030;2023-02-11T09:01:34;99832.31;;;1.65;100.00
68226;BME280;55045;49.410;11.030;2023-02-11T09:04:38;99835.78;;;1.70;100.00
68226;BME280;55045;49.410;11.030;2023-02-11T09:07:41;99832.06;;;2.10;100.00
68226;BME280;55045;49.410;11.030;2023-02-11T09:10:46;99827.53;;;1.91;100.00
68226;BME280;55045;49.410;11.030;2023-02-11T09:13:49;99831.09;;;2.00;100.00
68226;BME280;55045;49.410;11.030;2023-02-11T09:16:55;99820.00;;;2.00;100.00
68226;BME280;55045;49.410;11.030;2023-02-11T09:19:59;99820.06;;;2.05;100.00
68226;BME280;55045;49.410;11.030;2023-02-11T09:23:03;99805.59;;;2.07;100.00
68226;BME280;55045;49.410;11.030;2023-02-11T09:26:09;99800.75;;;2.31;100.00
68226;BME280;55045;49.410;11.030;2023-02-11T09:29:12;99803.31;;;2.29;100.00
68226;BME280;55045;49.410;11.030;2023-02-11T09:32:16;99805.97;;;2.37;100.00
68226;BME280;55045;49.410;11.030;2023-02-11T09:35:19;99814.44;;;2.33;100.00
68226;BME280;55045;49.410;11.030;2023-02-11T09:38:22;99813.53;;;2.29;100.00
68226;BME280;55045;49.410;11.030;2023-02-11T09:45:12;99829.47;;;2.77;100.00
68226;BME280;55045;49.410;11.030;2023-02-11T09:48:20;99823.66;;;2.96;100.00
68226;BME280;55045;49.410;11.030;2023-02-11T09:51:31;99817.53;;;2.83;100.00
68226;BME280;55045;49.410;11.030;2023-02-11T09:54:40;99816.78;;;2.92;100.00
68226;BME280;55045;49.410;11.030;2023-02-11T09:57:49;99821.25;;;3.11;100.00
68226;BME280;55045;49.410;11.030;2023-02-11T10:00:58;99816.94;;;3.07;100.00
68226;BME280;55045;49.410;11.030;2023-02-11T10:04:13;99809.19;;;3.00;100.00
68226;BME280;55045;49.410;11.030;2023-02-11T10:07:24;99818.50;;;2.95;100.00
68226;BME280;55045;49.410;11.030;2023-02-11T10:10:41;99814.47;;;3.20;100.00
68226;BME280;55045;49.410;11.030;2023-02-11T10:13:53;99826.44;;;3.17;100.00
68226;BME280;55045;49.410;11.030;2023-02-11T10:17:05;99835.97;;;3.34;100.00
68226;BME280;55045;49.410;11.030;2023-02-11T10:20:20;99830.19;;;3.58;100.00
68226;BME280;55045;49.410;11.030;2023-02-11T10:23:28;99827.69;;;3.68;100.00
68226;BME280;55045;49.410;11.030;2023-02-11T10:26:35;99833.66;;;3.69;100.00
68226;BME280;55045;49.410;11.030;2023-02-11T10:29:43;99832.97;;;3.93;100.00
68226;BME280;55045;49.410;11.030;2023-02-11T10:34:20;99832.34;;;4.43;100.00
68226;BME280;55045;49.410;11.030;2023-02-11T10:37:23;99829.00;;;4.70;100.00
68226;BME280;55045;49.410;11.030;2023-02-11T10:40:29;99817.81;;;4.52;100.00
68226;BME280;55045;49.410;11.030;2023-02-11T10:43:35;99823.03;;;4.72;100.00
68226;BME280;55045;49.410;11.030;2023-02-11T10:46:38;99823.81;;;4.57;100.00
68226;BME280;55045;49.410;11.030;2023-02-11T10:49:45;99804.97;;;4.54;100.00
68226;BME280;55045;49.410;11.030;2023-02-11T10:52:48;99810.91;;;4.38;100.00
68226;BME280;55045;49.410;11.030;2023-02-11T10:55:53;99817.72;;;4.26;100.00
68226;BME280;55045;49.410;11.030;2023-02-11T10:58:59;99804.00;;;4.23;100.00
68226;BME280;55045;49.410;11.030;2023-02-11T11:02:05;99815.19;;;4.31;100.00
68226;BME280;55045;49.410;11.030;2023-02-11T11:05:28;99808.38;;;4.41;100.00
68226;BME280;55045;49.410;11.030;2023-02-11T11:08:40;99808.38;;;4.47;100.00
68226;BME280;55045;49.410;11.030;2023-02-11T11:11:50;99808.41;;;4.54;100.00
68226;BME280;55045;49.410;11.030;2023-02-11T11:14:55;99803.28;;;4.62;100.00
68226;BME280;55045;49.410;11.030;2023-02-11T11:18:12;99817.84;;;4.60;100.00
68226;BME280;55045;49.410;11.030;2023-02-11T11:21:29;99811.91;;;4.81;100.00
68226;BME280;55045;49.410;11.030;2023-02-11T11:24:40;99804.13;;;4.56;100.00
68226;BME280;55045;49.410;11.030;2023-02-11T11:27:48;99800.75;;;4.83;100.00
68226;BME280;55045;49.410;11.030;2023-02-11T11:30:55;99808.47;;;4.80;100.00
68226;BME280;55045;49.410;11.030;2023-02-11T11:34:02;99808.47;;;4.88;100.00
68226;BME280;55045;49.410;11.030;2023-02-11T11:37:21;99784.47;;;4.75;100.00
68226;BME280;55045;49.410;11.030;2023-02-11T11:40:27;99802.50;;;4.90;100.00
68226;BME280;55045;49.410;11.030;2023-02-11T11:43:30;99801.66;;;4.91;100.00
68226;BME280;55045;49.410;11.030;2023-02-11T11:46:39;99798.19;;;4.89;100.00
68226;BME280;55045;49.410;11.030;2023-02-11T11:49:47;99799.94;;;5.27;100.00
68226;BME280;55045;49.410;11.030;2023-02-11T11:52:58;99799.06;;;4.95;100.00
68226;BME280;55045;49.410;11.030;2023-02-11T11:56:05;99797.31;;;4.75;100.00
68226;BME280;55045;49.410;11.030;2023-02-11T11:59:12;99794.72;;;4.69;100.00
68226;BME280;55045;49.410;11.030;2023-02-11T12:02:34;99792.94;;;4.45;100.00
68226;BME280;55045;49.410;11.030;2023-02-11T12:05:46;99798.97;;;4.55;100.00
68226;BME280;55045;49.410;11.030;2023-02-11T12:09:00;99800.78;;;4.99;100.00
68226;BME280;55045;49.410;11.030;2023-02-11T12:12:16;99797.34;;;4.81;100.00
68226;BME280;55045;49.410;11.030;2023-02-11T12:15:31;99753.59;;;4.52;100.00
68226;BME280;55045;49.410;11.030;2023-02-11T12:19:06;99793.06;;;4.83;100.00
68226;BME280;55045;49.410;11.030;2023-02-11T12:22:26;99799.03;;;4.87;100.00
68226;BME280;55045;49.410;11.030;2023-02-11T12:25:38;99794.78;;;4.81;100.00
68226;BME280;55045;49.410;11.030;2023-02-11T12:28:56;99788.75;;;4.88;100.00
68226;BME280;55045;49.410;11.030;2023-02-11T12:32:20;99790.50;;;4.96;100.00
68226;BME280;55045;49.410;11.030;2023-02-11T12:35:36;99793.06;;;4.97;100.00
68226;BME280;55045;49.410;11.030;2023-02-11T12:38:55;99787.94;;;5.03;100.00
68226;BME280;55045;49.410;11.030;2023-02-11T12:42:35;99787.00;;;4.69;100.00
68226;BME280;55045;49.410;11.030;2023-02-11T12:46:31;99789.63;;;4.89;100.00
68226;BME280;55045;49.410;11.030;2023-02-11T12:49:57;99778.50;;;4.81;100.00
68226;BME280;55045;49.410;11.030;2023-02-11T12:53:21;99775.03;;;4.77;100.00
68226;BME280;55045;49.410;11.030;2023-02-11T12:56:31;99769.03;;;4.65;100.00
68226;BME280;55045;49.410;11.030;2023-02-11T12:59:45;99758.75;;;4.75;100.00
68226;BME280;55045;49.410;11.030;2023-02-11T13:02:55;99750.19;;;4.64;100.00
68226;BME280;55045;49.410;11.030;2023-02-11T13:06:06;99771.59;;;4.60;100.00
68226;BME280;55045;49.410;11.030;2023-02-11T13:09:13;99765.63;;;4.72;100.00
68226;BME280;55045;49.410;11.030;2023-02-11T13:12:22;99745.91;;;4.75;100.00
68226;BME280;55045;49.410;11.030;2023-02-11T13:15:49;99755.31;;;4.79;100.00
68226;BME280;55045;49.410;11.030;2023-02-11T13:18:56;99754.47;;;4.76;100.00
68226;BME280;55045;49.410;11.030;2023-02-11T13:22:09;99759.59;;;4.65;100.00
68226;BME280;55045;49.410;11.030;2023-02-11T13:25:20;99748.50;;;4.81;100.00
68226;BME280;55045;49.410;11.030;2023-02-11T13:28:34;99731.31;;;4.54;100.00
68226;BME280;55045;49.410;11.030;2023-02-11T13:31:43;99747.63;;;4.82;100.00
68226;BME280;55045;49.410;11.030;2023-02-11T13:34:56;99749.34;;;4.86;100.00
68226;BME280;55045;49.410;11.030;2023-02-11T13:38:01;99744.19;;;4.79;100.00
68226;BME280;55045;49.410;11.030;2023-02-11T13:41:15;99749.34;;;4.82;100.00
68226;BME280;55045;49.410;11.030;2023-02-11T13:44:24;99752.78;;;4.72;100.00
68226;BME280;55045;49.410;11.030;2023-02-11T13:47:32;99754.47;;;4.76;100.00
68226;BME280;55045;49.410;11.030;2023-02-11T13:50:38;99751.06;;;4.75;100.00
68226;BME280;55045;49.410;11.030;2023-02-11T13:53:44;99762.19;;;4.63;100.00
68226;BME280;55045;49.410;11.030;2023-02-11T13:57:14;99768.16;;;4.67;100.00
68226;BME280;55045;49.410;11.030;2023-02-11T14:00:47;99769.00;;;4.54;100.00
68226;BME280;55045;49.410;11.030;2023-02-11T14:04:18;99777.63;;;4.73;100.00
68226;BME280;55045;49.410;11.030;2023-02-11T14:08:10;99753.53;;;4.36;100.00
68226;BME280;55045;49.410;11.030;2023-02-11T14:11:47;99778.44;;;4.64;100.00
68226;BME280;55045;49.410;11.030;2023-02-11T14:22:01;99779.25;;;4.40;100.00
68226;BME280;55045;49.410;11.030;2023-02-11T14:25:15;99772.38;;;4.39;100.00
68226;BME280;55045;49.410;11.030;2023-02-11T14:28:24;99768.06;;;4.26;100.00
68226;BME280;55045;49.410;11.030;2023-02-11T14:31:37;99695.19;;;3.89;100.00
68226;BME280;55045;49.410;11.030;2023-02-11T14:34:49;99769.81;;;4.31;100.00
68226;BME280;55045;49.410;11.030;2023-02-11T14:38:00;99768.94;;;4.36;100.00
68226;BME280;55045;49.410;11.030;2023-02-11T14:41:09;99769.81;;;4.38;100.00
68226;BME280;55045;49.410;11.030;2023-02-11T14:44:17;99755.28;;;4.40;100.00
68226;BME280;55045;49.410;11.030;2023-02-11T14:47:22;99755.28;;;4.47;100.00
68226;BME280;55045;49.410;11.030;2023-02-11T14:50:31;99759.56;;;4.59;100.00
68226;BME280;55045;49.410;11.030;2023-02-11T14:53:39;99761.25;;;4.34;100.00
68226;BME280;55045;49.410;11.030;2023-02-11T14:56:45;99762.91;;;4.27;100.00
68226;BME280;55045;49.410;11.030;2023-02-11T14:59:55;99762.94;;;4.33;100.00
68226;BME280;55045;49.410;11.030;2023-02-11T15:03:00;99734.66;;;4.27;100.00
68226;BME280;55045;49.410;11.030;2023-02-11T15:06:05;99690.94;;;4.00;100.00
68226;BME280;55045;49.410;11.030;2023-02-11T15:09:16;99745.78;;;4.23;100.00
68226;BME280;55045;49.410;11.030;2023-02-11T15:12:22;99732.09;;;4.27;100.00
68226;BME280;55045;49.410;11.030;2023-02-11T15:15:29;99771.47;;;4.28;100.00
68226;BME280;55045;49.410;11.030;2023-02-11T15:18:36;99782.66;;;4.36;100.00
68226;BME280;55045;49.410;11.030;2023-02-11T15:21:44;99783.50;;;4.35;100.00
68226;BME280;55045;49.410;11.030;2023-02-11T15:24:59;99781.78;;;4.29;100.00
68226;BME280;55045;49.410;11.030;2023-02-11T15:28:10;99780.94;;;4.37;100.00
68226;BME280;55045;49.410;11.030;2023-02-11T15:31:19;99773.22;;;4.33;100.00
68226;BME280;55045;49.410;11.030;2023-02-11T15:34:24;99774.91;;;4.25;100.00
68226;BME280;55045;49.410;11.030;2023-02-11T15:37:35;99780.03;;;4.22;100.00
68226;BME280;55045;49.410;11.030;2023-02-11T15:40:39;99792.88;;;4.21;100.00
68226;BME280;55045;49.410;11.030;2023-02-11T15:43:53;99792.88;;;4.27;100.00
68226;BME280;55045;49.410;11.030;2023-02-11T15:46:57;99799.72;;;4.22;100.00
68226;BME280;55045;49.410;11.030;2023-02-11T15:50:00;99795.44;;;4.25;100.00
68226;BME280;55045;49.410;11.030;2023-02-11T15:53:18;99795.41;;;4.18;100.00
68226;BME280;55045;49.410;11.030;2023-02-11T15:56:28;99791.13;;;4.14;100.00
68226;BME280;55045;49.410;11.030;2023-02-11T15:59:35;99741.25;;;3.66;100.00
68226;BME280;55045;49.410;11.030;2023-02-11T16:02:43;99797.13;;;4.16;100.00
68226;BME280;55045;49.410;11.030;2023-02-11T16:05:47;99781.56;;;3.84;100.00
68226;BME280;55045;49.410;11.030;2023-02-11T16:08:58;99796.25;;;4.12;100.00
68226;BME280;55045;49.410;11.030;2023-02-11T16:12:22;99809.88;;;3.97;100.00
68226;BME280;55045;49.410;11.030;2023-02-11T16:15:44;99797.88;;;3.89;100.00
68226;BME280;55045;49.410;11.030;2023-02-11T16:18:49;99809.88;;;3.97;100.00
68226;BME280;55045;49.410;11.030;2023-02-11T16:22:08;99804.78;;;4.03;100.00
68226;BME280;55045;49.410;11.030;2023-02-11T16:25:17;99812.44;;;3.96;100.00
68226;BME280;55045;49.410;11.030;2023-02-11T16:28:22;99818.38;;;3.87;100.00
68226;BME280;55045;49.410;11.030;2023-02-11T16:34:21;99832.97;;;3.93;100.00